sensor_id;sensor_type;location;lat;lon;timestamp;temperature;humidity
7159;DHT22;63175;52.374;13.132;2024-02-26T00:00:39;4.00;99.90
7159;DHT22;63175;52.374;13.132;2024-02-26T00:03:06;3.90;99.90
7159;DHT22;63175;52.374;13.132;2024-02-26T00:05:33;3.90;99.90
7159;DHT22;63175;52.374;13.132;2024-02-26T00:08:01;3.90;99.90
7159;DHT22;63175;52.374;13.132;2024-02-26T00:10:28;3.80;99.90
7159;DHT22;63175;52.374;13.132;2024-02-26T00:12:55;3.80;99.90
7159;DHT22;63175;52.374;13.132;2024-02-26T00:15:22;3.80;99.90
7159;DHT22;63175;52.374;13.132;2024-02-26T00:17:49;3.80;99.90
7159;DHT22;63175;52.374;13.132;2024-02-26T00:20:16;3.70;99.90
7159;DHT22;63175;52.374;13.132;2024-02-26T00:22:43;3.70;99.90
7159;DHT22;63175;52.374;13.132;2024-02-26T00:25:11;3.60;99.90
7159;DHT22;63175;52.374;13.132;2024-02-26T00:27:38;3.60;99.90
7159;DHT22;63175;52.374;13.132;2024-02-26T00:30:09;3.50;99.90
7159;DHT22;63175;52.374;13.132;2024-02-26T00:32:36;3.50;99.90
7159;DHT22;63175;52.374;13.132;2024-02-26T00:35:03;3.50;99.90
7159;DHT22;63175;52.374;13.132;2024-02-26T00:37:30;3.40;99.90
7159;DHT22;63175;52.374;13.132;2024-02-26T00:39:56;3.40;99.90
7159;DHT22;63175;52.374;13.132;2024-02-26T00:42:25;3.30;99.90
7159;DHT22;63175;52.374;13.132;2024-02-26T00:44:51;3.30;99.90
7159;DHT22;63175;52.374;13.132;2024-02-26T00:47:18;3.30;99.90
7159;DHT22;63175;52.374;13.132;2024-02-26T00:49:45;3.20;99.90
7159;DHT22;63175;52.374;13.132;2024-02-26T00:52:13;3.20;99.90
7159;DHT22;63175;52.374;13.132;2024-02-26T00:54:39;3.20;99.90
7159;DHT22;63175;52.374;13.132;2024-02-26T00:57:06;3.20;99.90
7159;DHT22;63175;52.374;13.132;2024-02-26T00:59:35;3.10;99.90
7159;DHT22;63175;52.374;13.132;2024-02-26T01:02:01;3.10;99.90
7159;DHT22;63175;52.374;13.132;2024-02-26T01:04:31;3.20;99.90
7159;DHT22;63175;52.374;13.132;2024-02-26T01:06:59;3.10;99.90
7159;DHT22;63175;52.374;13.132;2024-02-26T01:09:26;3.10;99.90
7159;DHT22;63175;52.374;13.132;2024-02-26T01:11:53;3.10;99.90
7159;DHT22;63175;52.374;13.132;2024-02-26T01:14:20;3.10;99.90
7159;DHT22;63175;52.374;13.132;2024-02-26T01:16:48;3.10;99.90
7159;DHT22;63175;52.374;13.132;2024-02-26T01:19:15;3.10;99.90
7159;DHT22;63175;52.374;13.132;2024-02-26T01:21:42;3.10;99.90
7159;DHT22;63175;52.374;13.132;2024-02-26T01:24:09;3.10;99.90
7159;DHT22;63175;52.374;13.132;2024-02-26T01:26:36;3.10;99.90
7159;DHT22;63175;52.374;13.132;2024-02-26T01:29:03;3.10;99.90
7159;DHT22;63175;52.374;13.132;2024-02-26T01:31:30;3.10;99.90
7159;DHT22;63175;52.374;13.132;2024-02-26T01:33:58;3.10;99.90
7159;DHT22;63175;52.374;13.132;2024-02-26T01:36:25;3.10;99.90
7159;DHT22;63175;52.374;13.132;2024-02-26T01:38:52;3.10;99.90
7159;DHT22;63175;52.374;13.132;2024-02-26T01:41:18;3.10;99.90
7159;DHT22;63175;52.374;13.132;2024-02-26T01:43:45;3.00;99.90
7159;DHT22;63175;52.374;13.132;2024-02-26T01:46:14;3.00;99.90
7159;DHT22;63175;52.374;13.132;2024-02-26T01:48:41;3.00;99.90
7159;DHT22;63175;52.374;13.132;2024-02-26T01:51:11;2.90;99.90
7159;DHT22;63175;52.374;13.132;2024-02-26T01:53:38;2.90;99.90
7159;DHT22;63175;52.374;13.132;2024-02-26T01:56:06;2.90;99.90
7159;DHT22;63175;52.374;13.132;2024-02-26T01:58:33;2.90;99.90
7159;DHT22;63175;52.374;13.132;2024-02-26T02:01:01;2.90;99.90
7159;DHT22;63175;52.374;13.132;2024-02-26T02:03:28;2.90;99.90
7159;DHT22;63175;52.374;13.132;2024-02-26T02:05:57;2.80;99.90
7159;DHT22;63175;52.374;13.132;2024-02-26T02:08:25;2.80;99.90
7159;DHT22;63175;52.374;13.132;2024-02-26T02:10:53;2.80;99.90
7159;DHT22;63175;52.374;13.132;2024-02-26T02:13:20;2.80;99.90
7159;DHT22;63175;52.374;13.132;2024-02-26T02:15:47;2.70;99.90
7159;DHT22;63175;52.374;13.132;2024-02-26T02:18:14;2.80;99.90
7159;DHT22;63175;52.374;13.132;2024-02-26T02:20:42;2.70;99.90
7159;DHT22;63175;52.374;13.132;2024-02-26T02:23:09;2.70;99.90
7159;DHT22;63175;52.374;13.132;2024-02-26T02:25:36;2.70;99.90
7159;DHT22;63175;52.374;13.132;2024-02-26T02:28:03;2.60;99.90
7159;DHT22;63175;52.374;13.132;2024-02-26T02:30:31;2.70;99.90
7159;DHT22;63175;52.374;13.132;2024-02-26T02:32:58;2.60;99.90
7159;DHT22;63175;52.374;13.132;2024-02-26T02:35:25;2.70;99.90
7159;DHT22;63175;52.374;13.132;2024-02-26T02:37:57;2.60;99.90
7159;DHT22;63175;52.374;13.132;2024-02-26T02:40:24;2.60;99.90
7159;DHT22;63175;52.374;13.132;2024-02-26T02:42:51;2.60;99.90
7159;DHT22;63175;52.374;13.132;2024-02-26T02:45:18;2.60;99.90
7159;DHT22;63175;52.374;13.132;2024-02-26T02:47:45;2.70;99.90
7159;DHT22;63175;52.374;13.132;2024-02-26T02:50:11;2.70;99.90
7159;DHT22;63175;52.374;13.132;2024-02-26T02:52:38;2.70;99.90
7159;DHT22;63175;52.374;13.132;2024-02-26T02:55:07;2.70;99.90
7159;DHT22;63175;52.374;13.132;2024-02-26T02:57:34;2.60;99.90
7159;DHT22;63175;52.374;13.132;2024-02-26T03:00:07;2.60;99.90
7159;DHT22;63175;52.374;13.132;2024-02-26T03:02:34;2.60;99.90
7159;DHT22;63175;52.374;13.132;2024-02-26T03:05:01;2.60;99.90
7159;DHT22;63175;52.374;13.132;2024-02-26T03:07:28;2.60;99.90
7159;DHT22;63175;52.374;13.132;2024-02-26T03:09:55;2.60;99.90
7159;DHT22;63175;52.374;13.132;2024-02-26T03:12:23;2.50;99.90
7159;DHT22;63175;52.374;13.132;2024-02-26T03:14:50;2.60;99.90
7159;DHT22;63175;52.374;13.132;2024-02-26T03:17:18;2.60;99.90
7159;DHT22;63175;52.374;13.132;2024-02-26T03:19:45;2.60;99.90
7159;DHT22;63175;52.374;13.132;2024-02-26T03:22:13;2.50;99.90
7159;DHT22;63175;52.374;13.132;2024-02-26T03:24:40;2.50;99.90
7159;DHT22;63175;52.374;13.132;2024-02-26T03:27:06;2.50;99.90
7159;DHT22;63175;52.374;13.132;2024-02-26T03:29:36;2.50;99.90
7159;DHT22;63175;52.374;13.132;2024-02-26T03:32:04;2.50;99.90
7159;DHT22;63175;52.374;13.132;2024-02-26T03:34:32;2.50;99.90
7159;DHT22;63175;52.374;13.132;2024-02-26T03:36:59;2.50;99.90
7159;DHT22;63175;52.374;13.132;2024-02-26T03:39:26;2.50;99.90
7159;DHT22;63175;52.374;13.132;2024-02-26T03:41:53;2.50;99.90
7159;DHT22;63175;52.374;13.132;2024-02-26T03:44:20;2.50;99.90
7159;DHT22;63175;52.374;13.132;2024-02-26T03:46:49;2.50;99.90
7159;DHT22;63175;52.374;13.132;2024-02-26T03:49:15;2.50;99.90
7159;DHT22;63175;52.374;13.132;2024-02-26T03:51:43;2.50;99.90
7159;DHT22;63175;52.374;13.132;2024-02-26T03:54:10;2.50;99.90
7159;DHT22;63175;52.374;13.132;2024-02-26T03:56:37;2.50;99.90
7159;DHT22;63175;52.374;13.132;2024-02-26T03:59:03;2.40;99.90
7159;DHT22;63175;52.374;13.132;2024-02-26T04:01:31;2.40;99.90
7159;DHT22;63175;52.374;13.132;2024-02-26T04:03:59;2.40;99.90
7159;DHT22;63175;52.374;13.132;2024-02-26T04:06:27;2.50;99.90
7159;DHT22;63175;52.374;13.132;2024-02-26T04:08:53;2.50;99.90
7159;DHT22;63175;52.374;13.132;2024-02-26T04:11:20;2.50;99.90
7159;DHT22;63175;52.374;13.132;2024-02-26T04:13:47;2.50;99.90
7159;DHT22;63175;52.374;13.132;2024-02-26T04:16:16;2.40;99.90
7159;DHT22;63175;52.374;13.132;2024-02-26T04:18:43;2.40;99.90
7159;DHT22;63175;52.374;13.132;2024-02-26T04:21:12;2.40;99.90
7159;DHT22;63175;52.374;13.132;2024-02-26T04:23:38;2.40;99.90
7159;DHT22;63175;52.374;13.132;2024-02-26T04:26:05;2.40;99.90
7159;DHT22;63175;52.374;13.132;2024-02-26T04:28:32;2.40;99.90
7159;DHT22;63175;52.374;13.132;2024-02-26T04:30:59;2.40;99.90
7159;DHT22;63175;52.374;13.132;2024-02-26T04:33:26;2.40;99.90
7159;DHT22;63175;52.374;13.132;2024-02-26T04:35:53;2.50;99.90
7159;DHT22;63175;52.374;13.132;2024-02-26T04:38:21;2.50;99.90
7159;DHT22;63175;52.374;13.132;2024-02-26T04:40:48;2.50;99.90
7159;DHT22;63175;52.374;13.132;2024-02-26T04:43:14;2.50;99.90
7159;DHT22;63175;52.374;13.132;2024-02-26T04:45:43;2.50;99.90
7159;DHT22;63175;52.374;13.132;2024-02-26T04:48:10;2.50;99.90
7159;DHT22;63175;52.374;13.132;2024-02-26T04:50:36;2.50;99.90
7159;DHT22;63175;52.374;13.132;2024-02-26T04:53:04;2.50;99.90
7159;DHT22;63175;52.374;13.132;2024-02-26T04:55:32;2.50;99.90
7159;DHT22;63175;52.374;13.132;2024-02-26T04:57:59;2.50;99.90
7159;DHT22;63175;52.374;13.132;2024-02-26T05:00:26;2.50;99.90
7159;DHT22;63175;52.374;13.132;2024-02-26T05:02:53;2.50;99.90
7159;DHT22;63175;52.374;13.132;2024-02-26T05:05:19;2.50;99.90
7159;DHT22;63175;52.374;13.132;2024-02-26T05:07:46;2.50;99.90
7159;DHT22;63175;52.374;13.132;2024-02-26T05:10:13;2.40;99.90
7159;DHT22;63175;52.374;13.132;2024-02-26T05:12:41;2.40;99.90
7159;DHT22;63175;52.374;13.132;2024-02-26T05:15:09;2.50;99.90
7159;DHT22;63175;52.374;13.132;2024-02-26T05:17:36;2.50;99.90
7159;DHT22;63175;52.374;13.132;2024-02-26T05:20:03;2.50;99.90
7159;DHT22;63175;52.374;13.132;2024-02-26T05:22:33;2.50;99.90
7159;DHT22;63175;52.374;13.132;2024-02-26T05:25:00;2.50;99.90
7159;DHT22;63175;52.374;13.132;2024-02-26T05:27:27;2.50;99.90
7159;DHT22;63175;52.374;13.132;2024-02-26T05:29:55;2.50;99.90
7159;DHT22;63175;52.374;13.132;2024-02-26T05:32:22;2.50;99.90
7159;DHT22;63175;52.374;13.132;2024-02-26T05:34:49;2.50;99.90
7159;DHT22;63175;52.374;13.132;2024-02-26T05:37:16;2.50;99.90
7159;DHT22;63175;52.374;13.132;2024-02-26T05:39:43;2.50;99.90
7159;DHT22;63175;52.374;13.132;2024-02-26T05:42:09;2.50;99.90
7159;DHT22;63175;52.374;13.132;2024-02-26T05:44:36;2.50;99.90
7159;DHT22;63175;52.374;13.132;2024-02-26T05:47:04;2.50;99.90
7159;DHT22;63175;52.374;13.132;2024-02-26T05:49:31;2.50;99.90
7159;DHT22;63175;52.374;13.132;2024-02-26T05:51:59;2.50;99.90
7159;DHT22;63175;52.374;13.132;2024-02-26T05:54:25;2.50;99.90
7159;DHT22;63175;52.374;13.132;2024-02-26T05:56:52;2.50;99.90
7159;DHT22;63175;52.374;13.132;2024-02-26T05:59:19;2.50;99.90
7159;DHT22;63175;52.374;13.132;2024-02-26T06:01:46;2.50;99.90
7159;DHT22;63175;52.374;13.132;2024-02-26T06:04:14;2.50;99.90
7159;DHT22;63175;52.374;13.132;2024-02-26T06:06:42;2.50;99.90
7159;DHT22;63175;52.374;13.132;2024-02-26T06:09:09;2.50;99.90
7159;DHT22;63175;52.374;13.132;2024-02-26T06:11:37;2.50;99.90
7159;DHT22;63175;52.374;13.132;2024-02-26T06:14:04;2.50;99.90
7159;DHT22;63175;52.374;13.132;2024-02-26T06:16:31;2.50;99.90
7159;DHT22;63175;52.374;13.132;2024-02-26T06:18:58;2.50;99.90
7159;DHT22;63175;52.374;13.132;2024-02-26T06:21:27;2.50;99.90
7159;DHT22;63175;52.374;13.132;2024-02-26T06:23:54;2.50;99.90
7159;DHT22;63175;52.374;13.132;2024-02-26T06:26:21;2.60;99.90
7159;DHT22;63175;52.374;13.132;2024-02-26T06:28:48;2.60;99.90
7159;DHT22;63175;52.374;13.132;2024-02-26T06:31:15;2.60;99.90
7159;DHT22;63175;52.374;13.132;2024-02-26T06:33:43;2.70;99.90
7159;DHT22;63175;52.374;13.132;2024-02-26T06:36:09;2.70;99.90
7159;DHT22;63175;52.374;13.132;2024-02-26T06:38:37;2.70;99.90
7159;DHT22;63175;52.374;13.132;2024-02-26T06:41:04;2.80;99.90
7159;DHT22;63175;52.374;13.132;2024-02-26T06:43:31;2.90;99.90
7159;DHT22;63175;52.374;13.132;2024-02-26T06:45:58;2.90;99.90
7159;DHT22;63175;52.374;13.132;2024-02-26T06:48:25;3.00;99.90
7159;DHT22;63175;52.374;13.132;2024-02-26T06:50:52;3.10;99.90
7159;DHT22;63175;52.374;13.132;2024-02-26T06:53:19;3.20;99.90
7159;DHT22;63175;52.374;13.132;2024-02-26T06:55:47;3.30;99.90
7159;DHT22;63175;52.374;13.132;2024-02-26T06:58:15;3.30;99.90
7159;DHT22;63175;52.374;13.132;2024-02-26T07:00:42;3.50;99.90
7159;DHT22;63175;52.374;13.132;2024-02-26T07:03:09;3.60;99.90
7159;DHT22;63175;52.374;13.132;2024-02-26T07:05:36;3.80;99.90
7159;DHT22;63175;52.374;13.132;2024-02-26T07:08:04;3.90;99.90
7159;DHT22;63175;52.374;13.132;2024-02-26T07:10:30;4.10;99.90
7159;DHT22;63175;52.374;13.132;2024-02-26T07:12:59;4.30;99.90
7159;DHT22;63175;52.374;13.132;2024-02-26T07:15:25;4.40;99.90
7159;DHT22;63175;52.374;13.132;2024-02-26T07:17:52;4.60;99.90
7159;DHT22;63175;52.374;13.132;2024-02-26T07:20:19;4.70;99.90
7159;DHT22;63175;52.374;13.132;2024-02-26T07:22:46;4.80;99.90
7159;DHT22;63175;52.374;13.132;2024-02-26T07:25:13;4.90;99.90
7159;DHT22;63175;52.374;13.132;2024-02-26T07:27:41;5.10;99.90
7159;DHT22;63175;52.374;13.132;2024-02-26T07:30:11;5.20;99.90
7159;DHT22;63175;52.374;13.132;2024-02-26T07:32:38;5.30;99.90
7159;DHT22;63175;52.374;13.132;2024-02-26T07:35:05;5.40;99.90
7159;DHT22;63175;52.374;13.132;2024-02-26T07:37:32;5.60;99.90
7159;DHT22;63175;52.374;13.132;2024-02-26T07:39:59;5.70;99.90
7159;DHT22;63175;52.374;13.132;2024-02-26T07:42:25;5.90;99.90
7159;DHT22;63175;52.374;13.132;2024-02-26T07:44:52;6.10;99.90
7159;DHT22;63175;52.374;13.132;2024-02-26T07:47:20;6.20;99.90
7159;DHT22;63175;52.374;13.132;2024-02-26T07:49:48;6.30;99.90
7159;DHT22;63175;52.374;13.132;2024-02-26T07:52:15;6.50;99.90
7159;DHT22;63175;52.374;13.132;2024-02-26T07:54:42;6.50;99.90
7159;DHT22;63175;52.374;13.132;2024-02-26T07:57:09;6.50;99.90
7159;DHT22;63175;52.374;13.132;2024-02-26T07:59:36;6.60;99.90
7159;DHT22;63175;52.374;13.132;2024-02-26T08:02:03;6.60;99.90
7159;DHT22;63175;52.374;13.132;2024-02-26T08:04:32;6.70;99.90
7159;DHT22;63175;52.374;13.132;2024-02-26T08:06:59;6.70;99.90
7159;DHT22;63175;52.374;13.132;2024-02-26T08:09:26;6.80;99.90
7159;DHT22;63175;52.374;13.132;2024-02-26T08:11:53;7.00;99.90
7159;DHT22;63175;52.374;13.132;2024-02-26T08:14:20;7.20;99.90
7159;DHT22;63175;52.374;13.132;2024-02-26T08:16:47;7.60;99.90
7159;DHT22;63175;52.374;13.132;2024-02-26T08:19:14;8.00;99.90
7159;DHT22;63175;52.374;13.132;2024-02-26T08:21:42;8.40;99.90
7159;DHT22;63175;52.374;13.132;2024-02-26T08:24:09;8.80;99.90
7159;DHT22;63175;52.374;13.132;2024-02-26T08:26:36;9.10;99.90
7159;DHT22;63175;52.374;13.132;2024-02-26T08:29:03;9.40;99.90
7159;DHT22;63175;52.374;13.132;2024-02-26T08:31:30;9.60;99.90
7159;DHT22;63175;52.374;13.132;2024-02-26T08:33:57;9.90;99.90
7159;DHT22;63175;52.374;13.132;2024-02-26T08:36:24;10.20;99.90
7159;DHT22;63175;52.374;13.132;2024-02-26T08:38:52;10.60;99.90
7159;DHT22;63175;52.374;13.132;2024-02-26T08:41:19;11.00;99.90
7159;DHT22;63175;52.374;13.132;2024-02-26T08:43:46;11.50;99.90
7159;DHT22;63175;52.374;13.132;2024-02-26T08:46:13;11.80;99.90
7159;DHT22;63175;52.374;13.132;2024-02-26T08:48:40;12.30;99.90
7159;DHT22;63175;52.374;13.132;2024-02-26T08:51:07;12.80;99.90
7159;DHT22;63175;52.374;13.132;2024-02-26T08:53:34;13.10;99.90
7159;DHT22;63175;52.374;13.132;2024-02-26T08:56:03;13.50;99.90
7159;DHT22;63175;52.374;13.132;2024-02-26T08:58:30;13.90;99.90
7159;DHT22;63175;52.374;13.132;2024-02-26T09:00:57;14.20;99.90
7159;DHT22;63175;52.374;13.132;2024-02-26T09:03:24;14.30;98.70
7159;DHT22;63175;52.374;13.132;2024-02-26T09:05:51;14.20;97.50
7159;DHT22;63175;52.374;13.132;2024-02-26T09:08:18;14.10;97.10
7159;DHT22;63175;52.374;13.132;2024-02-26T09:10:45;13.80;97.00
7159;DHT22;63175;52.374;13.132;2024-02-26T09:13:13;13.60;96.80
7159;DHT22;63175;52.374;13.132;2024-02-26T09:15:40;13.40;96.80
7159;DHT22;63175;52.374;13.132;2024-02-26T09:18:07;13.20;97.10
7159;DHT22;63175;52.374;13.132;2024-02-26T09:20:34;13.10;97.20
7159;DHT22;63175;52.374;13.132;2024-02-26T09:23:00;13.00;97.50
7159;DHT22;63175;52.374;13.132;2024-02-26T09:25:28;13.10;97.80
7159;DHT22;63175;52.374;13.132;2024-02-26T09:27:55;13.40;97.70
7159;DHT22;63175;52.374;13.132;2024-02-26T09:30:23;13.70;97.20
7159;DHT22;63175;52.374;13.132;2024-02-26T09:32:50;14.20;96.70
7159;DHT22;63175;52.374;13.132;2024-02-26T09:35:17;14.70;95.90
7159;DHT22;63175;52.374;13.132;2024-02-26T09:37:43;15.10;94.30
7159;DHT22;63175;52.374;13.132;2024-02-26T09:40:11;15.60;93.40
7159;DHT22;63175;52.374;13.132;2024-02-26T09:42:43;15.70;92.50
7159;DHT22;63175;52.374;13.132;2024-02-26T09:45:12;16.00;91.80
7159;DHT22;63175;52.374;13.132;2024-02-26T09:47:42;16.20;91.10
7159;DHT22;63175;52.374;13.132;2024-02-26T09:50:09;16.40;90.10
7159;DHT22;63175;52.374;13.132;2024-02-26T09:52:41;16.70;89.40
7159;DHT22;63175;52.374;13.132;2024-02-26T09:55:09;16.80;87.60
7159;DHT22;63175;52.374;13.132;2024-02-26T09:57:37;16.90;86.20
7159;DHT22;63175;52.374;13.132;2024-02-26T10:00:05;17.10;84.90
7159;DHT22;63175;52.374;13.132;2024-02-26T10:02:36;17.30;83.80
7159;DHT22;63175;52.374;13.132;2024-02-26T10:05:08;17.40;81.40
7159;DHT22;63175;52.374;13.132;2024-02-26T10:07:37;17.50;79.30
7159;DHT22;63175;52.374;13.132;2024-02-26T10:10:05;17.60;79.20
7159;DHT22;63175;52.374;13.132;2024-02-26T10:12:32;17.70;77.90
7159;DHT22;63175;52.374;13.132;2024-02-26T10:14:59;17.80;75.90
7159;DHT22;63175;52.374;13.132;2024-02-26T10:17:26;17.90;74.50
7159;DHT22;63175;52.374;13.132;2024-02-26T10:19:54;18.00;74.00
7159;DHT22;63175;52.374;13.132;2024-02-26T10:22:23;18.10;73.60
7159;DHT22;63175;52.374;13.132;2024-02-26T10:24:50;18.20;72.90
7159;DHT22;63175;52.374;13.132;2024-02-26T10:27:17;18.40;72.30
7159;DHT22;63175;52.374;13.132;2024-02-26T10:29:45;18.60;70.70
7159;DHT22;63175;52.374;13.132;2024-02-26T10:32:13;18.90;70.10
7159;DHT22;63175;52.374;13.132;2024-02-26T10:34:40;19.20;68.80
7159;DHT22;63175;52.374;13.132;2024-02-26T10:37:07;19.40;66.90
7159;DHT22;63175;52.374;13.132;2024-02-26T10:39:37;19.70;65.70
7159;DHT22;63175;52.374;13.132;2024-02-26T10:42:04;19.90;63.80
7159;DHT22;63175;52.374;13.132;2024-02-26T10:44:35;20.10;62.30
7159;DHT22;63175;52.374;13.132;2024-02-26T10:47:02;20.20;61.20
7159;DHT22;63175;52.374;13.132;2024-02-26T10:49:29;20.30;60.50
7159;DHT22;63175;52.374;13.132;2024-02-26T10:51:56;20.30;60.70
7159;DHT22;63175;52.374;13.132;2024-02-26T10:54:26;20.40;61.30
7159;DHT22;63175;52.374;13.132;2024-02-26T10:56:56;20.40;60.00
7159;DHT22;63175;52.374;13.132;2024-02-26T10:59:23;20.60;59.80
7159;DHT22;63175;52.374;13.132;2024-02-26T11:01:50;20.70;58.80
7159;DHT22;63175;52.374;13.132;2024-02-26T11:04:18;20.90;57.50
7159;DHT22;63175;52.374;13.132;2024-02-26T11:06:45;20.90;56.00
7159;DHT22;63175;52.374;13.132;2024-02-26T11:09:14;20.90;55.50
7159;DHT22;63175;52.374;13.132;2024-02-26T11:11:41;20.90;55.10
7159;DHT22;63175;52.374;13.132;2024-02-26T11:14:11;20.90;54.70
7159;DHT22;63175;52.374;13.132;2024-02-26T11:16:39;20.90;54.70
7159;DHT22;63175;52.374;13.132;2024-02-26T11:19:09;20.60;54.20
7159;DHT22;63175;52.374;13.132;2024-02-26T11:21:36;20.40;54.40
7159;DHT22;63175;52.374;13.132;2024-02-26T11:24:09;20.10;55.00
7159;DHT22;63175;52.374;13.132;2024-02-26T11:26:41;19.80;55.40
7159;DHT22;63175;52.374;13.132;2024-02-26T11:29:14;19.50;56.00
7159;DHT22;63175;52.374;13.132;2024-02-26T11:31:42;19.30;56.30
7159;DHT22;63175;52.374;13.132;2024-02-26T11:34:11;19.00;56.40
7159;DHT22;63175;52.374;13.132;2024-02-26T11:36:38;18.90;56.50
7159;DHT22;63175;52.374;13.132;2024-02-26T11:39:06;18.80;56.80
7159;DHT22;63175;52.374;13.132;2024-02-26T11:41:33;18.70;56.80
7159;DHT22;63175;52.374;13.132;2024-02-26T11:44:01;18.60;56.60
7159;DHT22;63175;52.374;13.132;2024-02-26T11:46:32;18.50;56.40
7159;DHT22;63175;52.374;13.132;2024-02-26T11:49:00;18.40;56.20
7159;DHT22;63175;52.374;13.132;2024-02-26T11:51:32;18.20;56.50
7159;DHT22;63175;52.374;13.132;2024-02-26T11:53:59;18.00;56.90
7159;DHT22;63175;52.374;13.132;2024-02-26T11:56:26;17.90;57.50
7159;DHT22;63175;52.374;13.132;2024-02-26T11:58:59;17.90;57.70
7159;DHT22;63175;52.374;13.132;2024-02-26T12:04:17;17.90;57.50
7159;DHT22;63175;52.374;13.132;2024-02-26T12:06:56;18.00;57.20
7159;DHT22;63175;52.374;13.132;2024-02-26T12:09:36;18.30;57.00
7159;DHT22;63175;52.374;13.132;2024-02-26T12:12:04;18.60;55.80
7159;DHT22;63175;52.374;13.132;2024-02-26T12:14:33;18.90;55.30
7159;DHT22;63175;52.374;13.132;2024-02-26T12:17:03;19.30;55.00
7159;DHT22;63175;52.374;13.132;2024-02-26T12:19:33;19.60;54.30
7159;DHT22;63175;52.374;13.132;2024-02-26T12:22:00;19.70;54.00
7159;DHT22;63175;52.374;13.132;2024-02-26T12:24:27;19.70;54.00
7159;DHT22;63175;52.374;13.132;2024-02-26T12:26:54;19.70;54.10
7159;DHT22;63175;52.374;13.132;2024-02-26T12:29:21;19.60;53.40
7159;DHT22;63175;52.374;13.132;2024-02-26T12:31:48;19.50;53.20
7159;DHT22;63175;52.374;13.132;2024-02-26T12:34:16;19.30;53.30
7159;DHT22;63175;52.374;13.132;2024-02-26T12:36:43;19.20;53.70
7159;DHT22;63175;52.374;13.132;2024-02-26T12:39:10;19.00;54.00
7159;DHT22;63175;52.374;13.132;2024-02-26T12:41:38;18.80;54.40
7159;DHT22;63175;52.374;13.132;2024-02-26T12:44:05;18.70;54.70
7159;DHT22;63175;52.374;13.132;2024-02-26T12:46:34;18.50;54.60
7159;DHT22;63175;52.374;13.132;2024-02-26T12:49:01;18.30;54.80
7159;DHT22;63175;52.374;13.132;2024-02-26T12:51:29;18.00;54.80
7159;DHT22;63175;52.374;13.132;2024-02-26T12:53:56;17.90;55.30
7159;DHT22;63175;52.374;13.132;2024-02-26T12:56:24;17.70;55.20
7159;DHT22;63175;52.374;13.132;2024-02-26T12:58:52;17.60;55.50
7159;DHT22;63175;52.374;13.132;2024-02-26T13:01:21;17.40;55.80
7159;DHT22;63175;52.374;13.132;2024-02-26T13:03:49;17.20;55.80
7159;DHT22;63175;52.374;13.132;2024-02-26T13:06:17;17.00;55.70
7159;DHT22;63175;52.374;13.132;2024-02-26T13:08:45;16.90;56.10
7159;DHT22;63175;52.374;13.132;2024-02-26T13:11:12;16.70;56.00
7159;DHT22;63175;52.374;13.132;2024-02-26T13:13:39;16.50;56.10
7159;DHT22;63175;52.374;13.132;2024-02-26T13:16:07;16.40;56.40
7159;DHT22;63175;52.374;13.132;2024-02-26T13:18:34;16.20;56.90
7159;DHT22;63175;52.374;13.132;2024-02-26T13:21:09;16.10;57.10
7159;DHT22;63175;52.374;13.132;2024-02-26T13:23:37;16.00;57.10
7159;DHT22;63175;52.374;13.132;2024-02-26T13:26:05;15.80;56.70
7159;DHT22;63175;52.374;13.132;2024-02-26T13:28:32;15.60;56.60
7159;DHT22;63175;52.374;13.132;2024-02-26T13:31:00;15.50;56.80
7159;DHT22;63175;52.374;13.132;2024-02-26T13:33:29;15.30;57.10
7159;DHT22;63175;52.374;13.132;2024-02-26T13:35:57;15.20;57.00
7159;DHT22;63175;52.374;13.132;2024-02-26T13:38:24;15.10;57.70
7159;DHT22;63175;52.374;13.132;2024-02-26T13:40:51;15.00;58.00
7159;DHT22;63175;52.374;13.132;2024-02-26T13:43:20;14.90;58.40
7159;DHT22;63175;52.374;13.132;2024-02-26T13:45:47;14.80;59.00
7159;DHT22;63175;52.374;13.132;2024-02-26T13:48:14;14.70;59.70
7159;DHT22;63175;52.374;13.132;2024-02-26T13:50:42;14.60;60.30
7159;DHT22;63175;52.374;13.132;2024-02-26T13:53:10;14.60;61.20
7159;DHT22;63175;52.374;13.132;2024-02-26T13:55:38;14.50;62.00
7159;DHT22;63175;52.374;13.132;2024-02-26T13:58:08;14.50;62.90
7159;DHT22;63175;52.374;13.132;2024-02-26T14:00:36;14.40;63.50
7159;DHT22;63175;52.374;13.132;2024-02-26T14:03:03;14.30;63.80
7159;DHT22;63175;52.374;13.132;2024-02-26T14:05:31;14.30;64.20
7159;DHT22;63175;52.374;13.132;2024-02-26T14:07:58;14.30;64.40
7159;DHT22;63175;52.374;13.132;2024-02-26T14:10:24;14.20;64.40
7159;DHT22;63175;52.374;13.132;2024-02-26T14:12:51;14.10;64.00
7159;DHT22;63175;52.374;13.132;2024-02-26T14:15:18;14.00;63.80
7159;DHT22;63175;52.374;13.132;2024-02-26T14:17:46;13.90;64.10
7159;DHT22;63175;52.374;13.132;2024-02-26T14:20:19;13.90;64.20
7159;DHT22;63175;52.374;13.132;2024-02-26T14:22:46;13.80;64.20
7159;DHT22;63175;52.374;13.132;2024-02-26T14:25:13;13.70;63.90
7159;DHT22;63175;52.374;13.132;2024-02-26T14:27:40;13.70;64.00
7159;DHT22;63175;52.374;13.132;2024-02-26T14:30:07;13.60;64.10
7159;DHT22;63175;52.374;13.132;2024-02-26T14:32:34;13.50;63.90
7159;DHT22;63175;52.374;13.132;2024-02-26T14:35:05;13.50;63.90
7159;DHT22;63175;52.374;13.132;2024-02-26T14:37:33;13.40;63.90
7159;DHT22;63175;52.374;13.132;2024-02-26T14:40:00;13.30;64.10
7159;DHT22;63175;52.374;13.132;2024-02-26T14:42:28;13.30;64.50
7159;DHT22;63175;52.374;13.132;2024-02-26T14:44:55;13.20;65.10
7159;DHT22;63175;52.374;13.132;2024-02-26T14:47:21;13.20;65.30
7159;DHT22;63175;52.374;13.132;2024-02-26T14:49:48;13.10;65.60
7159;DHT22;63175;52.374;13.132;2024-02-26T14:52:18;13.10;65.90
7159;DHT22;63175;52.374;13.132;2024-02-26T14:54:45;13.00;65.80
7159;DHT22;63175;52.374;13.132;2024-02-26T14:57:12;13.00;66.00
7159;DHT22;63175;52.374;13.132;2024-02-26T14:59:39;12.90;66.10
7159;DHT22;63175;52.374;13.132;2024-02-26T15:02:06;12.90;66.30
7159;DHT22;63175;52.374;13.132;2024-02-26T15:04:35;12.90;66.60
7159;DHT22;63175;52.374;13.132;2024-02-26T15:07:02;12.90;66.80
7159;DHT22;63175;52.374;13.132;2024-02-26T15:09:31;12.80;66.90
7159;DHT22;63175;52.374;13.132;2024-02-26T15:11:57;12.80;67.30
7159;DHT22;63175;52.374;13.132;2024-02-26T15:14:24;12.80;67.60
7159;DHT22;63175;52.374;13.132;2024-02-26T15:16:52;12.70;67.70
7159;DHT22;63175;52.374;13.132;2024-02-26T15:19:19;12.70;68.20
7159;DHT22;63175;52.374;13.132;2024-02-26T15:21:46;12.70;68.50
7159;DHT22;63175;52.374;13.132;2024-02-26T15:24:14;12.70;68.90
7159;DHT22;63175;52.374;13.132;2024-02-26T15:26:44;12.60;69.10
7159;DHT22;63175;52.374;13.132;2024-02-26T15:29:11;12.60;69.40
7159;DHT22;63175;52.374;13.132;2024-02-26T15:31:38;12.50;69.70
7159;DHT22;63175;52.374;13.132;2024-02-26T15:34:05;12.50;70.30
7159;DHT22;63175;52.374;13.132;2024-02-26T15:36:33;12.50;71.20
7159;DHT22;63175;52.374;13.132;2024-02-26T15:39:00;12.40;71.00
7159;DHT22;63175;52.374;13.132;2024-02-26T15:41:27;12.40;71.40
7159;DHT22;63175;52.374;13.132;2024-02-26T15:43:55;12.30;71.50